createdAt,value
2018-04-17T00:00:45.499Z,23.90
2018-04-17T00:01:45.518Z,22.10
2018-04-17T00:02:45.538Z,17.60
2018-04-17T00:03:45.554Z,22.70
2018-04-17T00:04:45.568Z,20.50
2018-04-17T00:05:45.587Z,24.70
2018-04-17T00:06:45.606Z,27.20
2018-04-17T00:07:45.632Z,21.60
2018-04-17T00:08:45.638Z,24.80
2018-04-17T00:09:45.658Z,24.10
2018-04-17T00:10:45.673Z,23.90
2018-04-17T00:11:45.688Z,23.30
2018-04-17T00:12:45.719Z,23.40
2018-04-17T00:13:45.727Z,27.40
2018-04-17T00:14:45.741Z,23.80
2018-04-17T00:15:45.760Z,21.30
2018-04-17T00:16:45.773Z,22.80
2018-04-17T00:17:45.793Z,24.80
2018-04-17T00:18:45.813Z,24.10
2018-04-17T00:19:45.827Z,22.80
2018-04-17T00:20:45.842Z,25.40
2018-04-17T00:21:45.863Z,25.20
2018-04-17T00:22:45.882Z,28.90
2018-04-17T00:23:45.906Z,30.30
2018-04-17T00:24:45.909Z,24.70
2018-04-17T00:25:45.928Z,25.20
2018-04-17T00:26:45.946Z,29.90
2018-04-17T00:27:45.969Z,28.50
2018-04-17T00:28:45.979Z,28.40
2018-04-17T00:29:45.996Z,24.80
2018-04-17T00:30:46.018Z,29.30
2018-04-17T00:31:46.035Z,21.60
2018-04-17T00:32:46.049Z,22.50
2018-04-17T00:33:46.067Z,24.60
2018-04-17T00:34:46.092Z,26.50
2018-04-17T00:35:46.105Z,22.40
2018-04-17T00:36:46.116Z,24.20
2018-04-17T00:37:46.132Z,26.50
2018-04-17T00:38:46.149Z,22.80
2018-04-17T00:39:46.167Z,23.00
2018-04-17T00:40:46.185Z,23.40
2018-04-17T00:41:46.202Z,25.80
2018-04-17T00:42:46.218Z,21.00
2018-04-17T00:43:46.234Z,25.80
2018-04-17T00:44:46.251Z,24.40
2018-04-17T00:45:46.269Z,26.20
2018-04-17T00:46:46.289Z,23.30
2018-04-17T00:47:46.303Z,25.30
2018-04-17T00:48:46.320Z,27.50
2018-04-17T00:49:46.338Z,28.40
2018-04-17T00:50:46.355Z,23.30
2018-04-17T00:51:46.386Z,25.60
2018-04-17T00:52:46.389Z,25.30
2018-04-17T00:53:46.407Z,24.20
2018-04-17T00:54:46.425Z,27.90
2018-04-17T00:55:46.446Z,23.80
2018-04-17T00:56:46.463Z,29.30
2018-04-17T00:57:46.474Z,24.60
2018-04-17T00:58:46.493Z,26.80
2018-04-17T00:59:46.508Z,27.40
2018-04-17T01:00:46.525Z,22.10
2018-04-17T01:01:46.544Z,25.90
2018-04-17T01:02:46.558Z,30.20
2018-04-17T01:03:46.575Z,23.40
2018-04-17T01:04:46.593Z,22.60
2018-04-17T01:05:46.609Z,20.10
2018-04-17T01:06:46.628Z,21.90
2018-04-17T01:07:46.643Z,21.60
2018-04-17T01:08:46.663Z,21.70
2018-04-17T01:09:46.679Z,28.50
2018-04-17T01:10:46.694Z,20.70
2018-04-17T01:11:46.717Z,23.50
2018-04-17T01:12:46.730Z,25.10
2018-04-17T01:13:46.751Z,30.20
2018-04-17T01:14:46.761Z,26.30
2018-04-17T01:15:46.787Z,23.20
2018-04-17T01:16:46.795Z,22.10
2018-04-17T01:17:46.817Z,22.20
2018-04-17T01:18:46.831Z,22.50
2018-04-17T01:19:46.846Z,27.50
2018-04-17T01:20:46.867Z,23.90
2018-04-17T01:21:46.885Z,20.90
2018-04-17T01:22:46.898Z,21.50
2018-04-17T01:23:46.913Z,25.50
2018-04-17T01:24:46.932Z,23.70
2018-04-17T01:25:46.951Z,25.70
2018-04-17T01:26:46.967Z,26.80
2018-04-17T01:27:46.986Z,22.20
2018-04-17T01:28:47.000Z,32.30
2018-04-17T01:29:47.015Z,24.40
2018-04-17T01:30:47.036Z,22.60
2018-04-17T01:31:47.051Z,25.90
2018-04-17T01:32:47.067Z,25.40
2018-04-17T01:33:47.085Z,22.40
2018-04-17T01:34:47.101Z,23.60
2018-04-17T01:35:47.118Z,27.30
2018-04-17T01:36:47.133Z,24.40
2018-04-17T01:37:47.160Z,25.80
2018-04-17T01:38:47.167Z,28.00
2018-04-17T01:39:47.188Z,24.40
2018-04-17T01:40:47.203Z,27.50
2018-04-17T01:41:47.220Z,27.30
2018-04-17T01:42:47.233Z,24.00
2018-04-17T01:43:47.251Z,25.10
2018-04-17T01:44:47.269Z,29.30
2018-04-17T01:45:47.282Z,27.10
2018-04-17T01:46:47.300Z,28.10
2018-04-17T01:47:47.319Z,25.90
2018-04-17T01:48:47.335Z,26.60
2018-04-17T01:49:47.352Z,24.90
2018-04-17T01:50:47.368Z,29.20
2018-04-17T01:51:47.387Z,22.80
2018-04-17T01:52:47.401Z,25.00
2018-04-17T01:53:47.420Z,28.00
2018-04-17T01:54:47.441Z,26.40
2018-04-17T01:55:47.456Z,27.30
2018-04-17T01:56:47.473Z,28.40
2018-04-17T01:57:47.487Z,24.90
2018-04-17T01:58:47.513Z,27.90
2018-04-17T01:59:47.532Z,28.10
2018-04-17T02:00:47.539Z,24.10
2018-04-17T02:01:47.569Z,25.30
2018-04-17T02:02:47.571Z,28.40
2018-04-17T02:03:47.592Z,25.50
2018-04-17T02:04:47.606Z,23.40
2018-04-17T02:05:47.628Z,24.50
2018-04-17T02:06:47.640Z,23.90
2018-04-17T02:07:47.658Z,28.00
2018-04-17T02:08:47.671Z,26.30
2018-04-17T02:09:47.692Z,29.00
2018-04-17T02:10:47.705Z,28.70
2018-04-17T02:11:47.728Z,26.90
2018-04-17T02:12:47.738Z,31.20
2018-04-17T02:13:47.755Z,31.60
2018-04-17T02:14:47.774Z,28.90
2018-04-17T02:15:47.788Z,29.50
2018-04-17T02:16:47.807Z,28.30
2018-04-17T02:17:47.826Z,29.40
2018-04-17T02:18:47.845Z,25.70
2018-04-17T02:19:47.866Z,30.60
2018-04-17T02:20:47.875Z,30.20
2018-04-17T02:21:47.889Z,31.50
2018-04-17T02:22:47.904Z,25.60
2018-04-17T02:23:47.923Z,27.50
2018-04-17T02:24:47.944Z,28.50
2018-04-17T02:25:47.954Z,32.20
2018-04-17T02:26:47.971Z,29.90
2018-04-17T02:27:47.991Z,28.60
2018-04-17T02:28:48.005Z,27.60
2018-04-17T02:29:48.021Z,25.60
2018-04-17T02:30:48.041Z,30.90
2018-04-17T02:31:48.056Z,25.70
2018-04-17T02:32:48.072Z,31.10
2018-04-17T02:33:48.089Z,29.20
2018-04-17T02:34:48.107Z,30.30
2018-04-17T02:35:48.124Z,32.40
2018-04-17T02:36:48.138Z,27.00
2018-04-17T02:37:48.156Z,33.80
2018-04-17T02:38:48.173Z,27.40
2018-04-17T02:39:48.187Z,31.30
2018-04-17T02:40:48.216Z,30.80
2018-04-17T02:41:48.223Z,26.40
2018-04-17T02:42:48.239Z,29.50
2018-04-17T02:43:48.261Z,26.20
2018-04-17T02:44:48.270Z,28.60
2018-04-17T02:45:48.289Z,29.40
2018-04-17T02:46:48.306Z,26.30
2018-04-17T02:47:48.321Z,26.60
2018-04-17T02:48:48.338Z,29.10
2018-04-17T02:49:48.354Z,28.40
2018-04-17T02:50:48.374Z,27.90
2018-04-17T02:51:48.386Z,30.20
2018-04-17T02:52:48.411Z,27.30
2018-04-17T02:53:48.420Z,28.50
2018-04-17T02:54:48.440Z,30.10
2018-04-17T02:55:48.455Z,29.50
2018-04-17T02:56:48.470Z,31.90
2018-04-17T02:57:48.485Z,29.60
2018-04-17T02:58:48.505Z,27.10
2018-04-17T02:59:48.532Z,24.80
2018-04-17T03:00:48.535Z,30.30
2018-04-17T03:01:48.552Z,32.20
2018-04-17T03:02:48.568Z,30.70
2018-04-17T03:03:48.582Z,29.10
2018-04-17T03:04:48.603Z,29.00
2018-04-17T03:05:48.617Z,31.10
2018-04-17T03:06:48.642Z,29.00
2018-04-17T03:07:48.661Z,29.90
2018-04-17T03:08:48.666Z,30.20
2018-04-17T03:09:48.683Z,28.00
2018-04-17T03:10:48.701Z,31.50
2018-04-17T03:11:48.717Z,31.10
2018-04-17T03:12:48.732Z,35.40
2018-04-17T03:13:48.766Z,32.40
2018-04-17T03:14:48.771Z,31.90
2018-04-17T03:15:48.788Z,35.20
2018-04-17T03:16:48.802Z,37.20
2018-04-17T03:17:48.817Z,37.10
2018-04-17T03:18:48.834Z,40.40
2018-04-17T03:19:48.850Z,37.00
2018-04-17T03:20:48.867Z,35.70
2018-04-17T03:21:48.880Z,40.50
2018-04-17T03:22:48.901Z,35.20
2018-04-17T03:23:48.921Z,37.70
2018-04-17T03:24:48.932Z,40.20
2018-04-17T03:25:48.951Z,42.90
2018-04-17T03:26:48.962Z,42.70
2018-04-17T03:27:48.979Z,35.40
2018-04-17T03:28:49.004Z,35.00
2018-04-17T03:29:49.018Z,31.80
2018-04-17T03:30:49.034Z,33.00
2018-04-17T03:31:49.047Z,33.90
2018-04-17T03:32:49.061Z,32.40
2018-04-17T03:33:49.085Z,35.40
2018-04-17T03:34:49.094Z,35.00
2018-04-17T03:35:49.110Z,32.60
2018-04-17T03:36:49.126Z,30.40
2018-04-17T03:37:49.145Z,35.90
2018-04-17T03:38:49.160Z,32.30
2018-04-17T03:39:49.178Z,34.00
2018-04-17T03:40:49.190Z,37.50
2018-04-17T03:41:49.209Z,34.80
2018-04-17T03:42:49.221Z,35.30
2018-04-17T03:43:49.241Z,34.40
2018-04-17T03:44:49.260Z,32.40
2018-04-17T03:45:49.275Z,34.70
2018-04-17T03:46:49.288Z,33.30
2018-04-17T03:47:49.307Z,33.00
2018-04-17T03:48:49.322Z,31.90
2018-04-17T03:49:49.336Z,30.30
2018-04-17T03:50:49.356Z,30.60
2018-04-17T03:51:49.373Z,33.70
2018-04-17T03:52:49.385Z,32.90
2018-04-17T03:53:49.404Z,32.80
2018-04-17T03:54:49.418Z,38.30
2018-04-17T03:55:49.437Z,31.90
2018-04-17T03:56:49.452Z,28.80
2018-04-17T03:57:49.468Z,31.00
2018-04-17T03:58:49.517Z,34.80
2018-04-17T03:59:49.499Z,27.50
2018-04-17T04:00:49.526Z,32.00
2018-04-17T04:01:49.554Z,29.80
2018-04-17T04:02:49.567Z,33.80
2018-04-17T04:03:49.565Z,32.60
2018-04-17T04:04:49.746Z,34.30
2018-04-17T04:05:49.613Z,34.40
2018-04-17T04:06:49.615Z,33.10
2018-04-17T04:07:49.632Z,34.70
2018-04-17T04:08:49.650Z,34.70
2018-04-17T04:09:49.664Z,33.10
2018-04-17T04:10:49.681Z,33.50
2018-04-17T04:11:49.704Z,33.60
2018-04-17T04:12:49.712Z,37.40
2018-04-17T04:13:49.730Z,34.60
2018-04-17T04:14:49.744Z,35.00
2018-04-17T04:15:49.763Z,31.90
2018-04-17T04:16:49.775Z,31.50
2018-04-17T04:17:49.797Z,33.00
2018-04-17T04:18:49.809Z,32.40
2018-04-17T04:19:49.824Z,38.80
2018-04-17T04:20:49.841Z,34.10
2018-04-17T04:21:49.858Z,35.50
2018-04-17T04:22:49.877Z,38.40
2018-04-17T04:23:49.891Z,34.80
2018-04-17T04:24:49.904Z,32.60
2018-04-17T04:25:49.922Z,39.00
2018-04-17T04:26:49.937Z,37.30
2018-04-17T04:27:49.957Z,31.90
2018-04-17T04:28:49.971Z,32.90
2018-04-17T04:29:49.987Z,33.40
2018-04-17T04:30:50.008Z,35.80
2018-04-17T04:31:50.026Z,35.80
2018-04-17T04:32:50.034Z,40.40
2018-04-17T04:33:50.053Z,41.60
2018-04-17T04:34:50.085Z,33.90
2018-04-17T04:35:50.082Z,36.20
2018-04-17T04:36:50.098Z,40.20
2018-04-17T04:37:50.115Z,40.40
2018-04-17T04:38:50.134Z,38.60
2018-04-17T04:39:50.153Z,40.60
2018-04-17T04:40:50.165Z,38.10
2018-04-17T04:41:50.186Z,38.90
2018-04-17T04:42:50.200Z,36.20
2018-04-17T04:43:50.214Z,33.80
2018-04-17T04:44:50.228Z,35.70
2018-04-17T04:45:50.243Z,32.40
2018-04-17T04:46:50.265Z,38.40
2018-04-17T04:47:50.277Z,35.10
2018-04-17T04:48:50.295Z,34.90
2018-04-17T04:49:50.314Z,31.10
2018-04-17T04:50:50.359Z,34.10
2018-04-17T04:51:50.346Z,33.40
2018-04-17T04:52:50.367Z,36.50
2018-04-17T04:53:50.379Z,41.80
2018-04-17T04:54:50.395Z,33.50
2018-04-17T04:55:50.409Z,39.40
2018-04-17T04:56:50.433Z,34.50
2018-04-17T04:57:50.442Z,32.00
2018-04-17T04:58:50.458Z,32.20
2018-04-17T04:59:50.475Z,45.10
2018-04-17T05:00:50.493Z,41.90
2018-04-17T05:01:50.513Z,37.80
2018-04-17T05:02:50.528Z,38.50
2018-04-17T05:03:50.544Z,40.30
2018-04-17T05:04:50.567Z,39.60
2018-04-17T05:05:50.575Z,38.30
2018-04-17T05:06:50.593Z,38.10
2018-04-17T05:07:50.609Z,39.10
2018-04-17T05:08:50.625Z,35.40
2018-04-17T05:09:50.641Z,37.40
2018-04-17T05:10:50.663Z,34.70
2018-04-17T05:11:50.684Z,39.80
2018-04-17T05:12:50.723Z,34.90
2018-04-17T05:13:50.709Z,36.10
2018-04-17T05:14:50.731Z,36.70
2018-04-17T05:15:50.752Z,28.40
2018-04-17T05:16:50.764Z,27.30
2018-04-17T05:17:50.780Z,33.70
2018-04-17T05:18:50.798Z,31.90
2018-04-17T05:19:50.820Z,38.40
2018-04-17T05:20:50.831Z,44.40
2018-04-17T05:21:50.854Z,42.70
2018-04-17T05:22:50.872Z,38.20
2018-04-17T05:23:50.942Z,37.50
2018-04-17T05:24:50.902Z,40.40
2018-04-17T05:25:50.925Z,33.20
2018-04-17T05:26:50.942Z,29.90
2018-04-17T05:27:50.961Z,37.10
2018-04-17T05:28:50.981Z,33.20
2018-04-17T05:29:51.008Z,25.90
2018-04-17T05:30:51.020Z,36.00
2018-04-17T05:31:51.038Z,28.00
2018-04-17T05:32:51.055Z,31.70
2018-04-17T05:33:51.071Z,32.00
2018-04-17T05:34:51.095Z,38.50
2018-04-17T05:35:51.110Z,27.20
2018-04-17T05:36:51.134Z,30.00
2018-04-17T05:37:51.156Z,39.60
2018-04-17T05:38:51.171Z,33.80
2018-04-17T05:39:51.192Z,24.90
2018-04-17T05:40:51.210Z,33.30
2018-04-17T05:41:51.230Z,28.40
2018-04-17T05:42:51.248Z,28.40
2018-04-17T05:43:51.269Z,24.80
2018-04-17T05:44:51.291Z,24.70
2018-04-17T05:45:51.311Z,27.60
2018-04-17T05:46:51.333Z,27.50
2018-04-17T05:47:51.354Z,28.30
2018-04-17T05:48:51.374Z,23.00
2018-04-17T05:49:51.399Z,24.40
2018-04-17T05:50:51.416Z,26.20
2018-04-17T05:51:51.436Z,27.30
2018-04-17T05:52:51.457Z,30.10
2018-04-17T05:53:51.480Z,28.40
2018-04-17T05:54:51.505Z,30.60
2018-04-17T05:55:51.574Z,26.00
2018-04-17T05:56:51.549Z,29.80
2018-04-17T05:57:51.568Z,29.60
2018-04-17T05:58:51.590Z,33.10
2018-04-17T05:59:51.611Z,25.20
2018-04-17T06:00:51.634Z,28.30
2018-04-17T06:01:51.655Z,28.10
2018-04-17T06:02:51.681Z,29.80
2018-04-17T06:03:51.701Z,29.50
2018-04-17T06:04:51.722Z,27.50
2018-04-17T06:05:51.746Z,27.20
2018-04-17T06:06:51.767Z,22.80
2018-04-17T06:07:51.790Z,30.70
2018-04-17T06:08:51.815Z,29.30
2018-04-17T06:09:51.836Z,25.40
2018-04-17T06:10:51.859Z,29.70
2018-04-17T06:11:51.894Z,32.30
2018-04-17T06:12:51.906Z,35.30
2018-04-17T06:13:51.935Z,25.50
2018-04-17T06:14:51.951Z,28.70
2018-04-17T06:15:51.978Z,34.30
2018-04-17T06:16:52.001Z,35.10
2018-04-17T06:17:52.024Z,31.50
2018-04-17T06:18:52.053Z,34.30
2018-04-17T06:19:52.073Z,32.50
2018-04-17T06:20:52.095Z,29.70
2018-04-17T06:21:52.124Z,31.70
2018-04-17T06:22:52.145Z,27.20
2018-04-17T06:23:52.174Z,30.40
2018-04-17T06:24:52.228Z,24.90
2018-04-17T06:25:52.217Z,27.30
2018-04-17T06:26:52.244Z,24.40
2018-04-17T06:27:52.267Z,26.30
2018-04-17T06:28:52.291Z,21.90
2018-04-17T06:29:52.316Z,26.00
2018-04-17T06:30:52.342Z,26.60
2018-04-17T06:31:52.365Z,25.70
2018-04-17T06:32:52.390Z,24.60
2018-04-17T06:33:52.417Z,27.50
2018-04-17T06:34:52.442Z,27.20
2018-04-17T06:35:52.466Z,28.20
2018-04-17T06:36:52.491Z,26.80
2018-04-17T06:37:52.521Z,25.20
2018-04-17T06:38:52.541Z,28.20
2018-04-17T06:39:52.565Z,24.90
2018-04-17T06:40:52.591Z,28.80
2018-04-17T06:41:52.676Z,25.50
2018-04-17T06:42:52.644Z,25.10
2018-04-17T06:43:52.667Z,26.80
2018-04-17T06:44:52.693Z,27.80
2018-04-17T06:45:52.721Z,23.80
2018-04-17T06:46:52.745Z,28.10
2018-04-17T06:47:52.772Z,27.40
2018-04-17T06:48:52.796Z,27.60
2018-04-17T06:49:52.822Z,25.00
2018-04-17T06:50:52.850Z,24.20
2018-04-17T06:51:52.873Z,27.00
2018-04-17T06:52:52.964Z,25.20
2018-04-17T06:53:52.925Z,25.20
2018-04-17T06:54:52.958Z,27.70
2018-04-17T06:55:52.987Z,27.30
2018-04-17T06:56:53.004Z,26.10
2018-04-17T06:57:53.028Z,24.50
2018-04-17T06:58:53.058Z,24.60
2018-04-17T06:59:53.084Z,23.50
2018-04-17T07:00:53.105Z,22.10
2018-04-17T07:01:53.137Z,22.90
2018-04-17T07:02:53.209Z,22.40
2018-04-17T07:03:53.189Z,23.20
2018-04-17T07:04:53.214Z,22.20
2018-04-17T07:05:53.239Z,23.10
2018-04-17T07:06:53.265Z,25.30
2018-04-17T07:07:53.292Z,22.70
2018-04-17T07:08:53.317Z,30.50
2018-04-17T07:09:53.347Z,24.50
2018-04-17T07:10:53.371Z,24.20
2018-04-17T07:11:53.401Z,26.70
2018-04-17T07:12:53.425Z,21.90
2018-04-17T07:13:53.451Z,25.40
2018-04-17T07:14:53.476Z,22.70
2018-04-17T07:15:53.505Z,25.30
2018-04-17T07:16:53.534Z,24.20
2018-04-17T07:17:53.559Z,22.80
2018-04-17T07:18:53.582Z,24.80
2018-04-17T07:19:53.613Z,24.10
2018-04-17T07:20:53.640Z,26.10
2018-04-17T07:21:53.665Z,26.10
2018-04-17T07:22:53.695Z,22.40
2018-04-17T07:23:53.720Z,22.70
2018-04-17T07:24:53.745Z,21.90
2018-04-17T07:25:53.770Z,26.40
2018-04-17T07:26:53.799Z,24.20
2018-04-17T07:27:53.824Z,24.60
2018-04-17T07:28:53.858Z,25.40
2018-04-17T07:29:54.028Z,25.80
2018-04-17T07:30:53.904Z,25.50
2018-04-17T07:31:53.932Z,21.40
2018-04-17T07:32:53.964Z,23.50
2018-04-17T07:33:53.987Z,25.90
2018-04-17T07:34:54.013Z,21.30
2018-04-17T07:35:54.042Z,20.80
2018-04-17T07:36:54.064Z,23.30
2018-04-17T07:37:54.093Z,21.00
2018-04-17T07:38:54.123Z,22.80
2018-04-17T07:39:54.151Z,21.70
2018-04-17T07:40:54.172Z,23.80
2018-04-17T07:41:54.201Z,23.00
2018-04-17T07:42:54.229Z,21.60
2018-04-17T07:43:54.255Z,21.00
2018-04-17T07:44:54.284Z,22.50
2018-04-17T07:45:54.310Z,20.80
2018-04-17T07:46:54.336Z,20.30
2018-04-17T07:47:54.363Z,20.10
2018-04-17T07:48:54.392Z,21.70
2018-04-17T07:49:54.423Z,23.40
2018-04-17T07:50:54.446Z,21.80
2018-04-17T07:51:54.472Z,22.50
2018-04-17T07:52:54.504Z,22.20
2018-04-17T07:53:54.528Z,24.30
2018-04-17T07:54:54.552Z,20.90
2018-04-17T07:55:54.581Z,19.50
2018-04-17T07:56:54.609Z,21.70
2018-04-17T07:57:54.634Z,21.40
2018-04-17T07:58:54.661Z,19.30
2018-04-17T07:59:54.687Z,19.80
2018-04-17T08:00:54.720Z,20.80
2018-04-17T08:01:54.745Z,20.60
2018-04-17T08:02:54.771Z,19.70
2018-04-17T08:03:54.800Z,22.60
2018-04-17T08:04:54.828Z,22.90
2018-04-17T08:05:54.851Z,20.30
2018-04-17T08:06:54.881Z,22.90
2018-04-17T08:07:54.909Z,22.10
2018-04-17T08:08:54.938Z,23.20
2018-04-17T08:09:54.965Z,20.40
2018-04-17T08:10:54.987Z,21.70
2018-04-17T08:11:55.040Z,21.50
2018-04-17T08:12:55.044Z,23.50
2018-04-17T08:13:55.071Z,19.90
2018-04-17T08:14:55.098Z,22.00
2018-04-17T08:15:55.123Z,22.70
2018-04-17T08:16:55.148Z,19.20
2018-04-17T08:17:55.180Z,22.70
2018-04-17T08:18:55.210Z,19.30
2018-04-17T08:19:55.231Z,21.00
2018-04-17T08:20:55.258Z,18.60
2018-04-17T08:21:55.291Z,22.10
2018-04-17T08:22:55.326Z,20.00
2018-04-17T08:23:55.341Z,19.80
2018-04-17T08:24:55.366Z,21.80
2018-04-17T08:25:55.395Z,25.30
2018-04-17T08:26:55.418Z,23.70
2018-04-17T08:27:55.446Z,24.30
2018-04-17T08:28:55.470Z,20.20
2018-04-17T08:29:55.495Z,19.50
2018-04-17T08:30:55.523Z,20.30
2018-04-17T08:31:55.551Z,21.20
2018-04-17T08:32:55.572Z,26.90
2018-04-17T08:33:55.600Z,23.90
2018-04-17T08:34:55.622Z,23.80
2018-04-17T08:35:55.645Z,24.90
2018-04-17T08:36:55.673Z,21.30
2018-04-17T08:37:55.700Z,25.20
2018-04-17T08:38:55.722Z,23.20
2018-04-17T08:39:55.747Z,24.70
2018-04-17T08:40:55.772Z,26.20
2018-04-17T08:41:55.793Z,25.00
2018-04-17T08:42:55.839Z,27.00
2018-04-17T08:43:55.842Z,27.50
2018-04-17T08:44:55.867Z,28.00
2018-04-17T08:45:55.894Z,26.70
2018-04-17T08:46:55.913Z,28.70
2018-04-17T08:47:55.941Z,27.80
2018-04-17T08:48:55.990Z,26.90
2018-04-17T08:49:55.980Z,28.30
2018-04-17T08:50:56.013Z,28.20
2018-04-17T08:51:56.036Z,28.00
2018-04-17T08:52:56.061Z,28.90
2018-04-17T08:53:56.079Z,26.10
2018-04-17T08:54:56.107Z,29.60
2018-04-17T08:55:56.125Z,26.90
2018-04-17T08:56:56.146Z,32.20
2018-04-17T08:57:56.167Z,27.20
2018-04-17T08:58:56.191Z,27.30
2018-04-17T08:59:56.215Z,28.30
2018-04-17T09:00:56.240Z,29.60
2018-04-17T09:01:56.289Z,27.80
2018-04-17T09:02:56.284Z,25.30
2018-04-17T09:03:56.309Z,29.20
2018-04-17T09:04:56.327Z,26.90
2018-04-17T09:05:56.349Z,28.50
2018-04-17T09:06:56.379Z,31.80
2018-04-17T09:07:56.396Z,28.60
2018-04-17T09:08:56.420Z,31.90
2018-04-17T09:09:56.442Z,31.60
2018-04-17T09:10:56.464Z,29.30
2018-04-17T09:11:56.492Z,30.40
2018-04-17T09:12:56.511Z,28.40
2018-04-17T09:13:56.533Z,30.10
2018-04-17T09:14:56.558Z,27.40
2018-04-17T09:15:56.575Z,28.30
2018-04-17T09:16:56.601Z,30.10
2018-04-17T09:17:56.624Z,29.70
2018-04-17T09:18:56.644Z,29.90
2018-04-17T09:19:56.668Z,27.90
2018-04-17T09:20:56.692Z,31.00
2018-04-17T09:21:56.712Z,32.10
2018-04-17T09:22:56.734Z,23.60
2018-04-17T09:23:56.783Z,25.30
2018-04-17T09:24:56.780Z,21.70
2018-04-17T09:25:56.807Z,24.60
2018-04-17T09:26:56.827Z,22.80
2018-04-17T09:27:56.852Z,22.10
2018-04-17T09:28:56.876Z,18.50
2018-04-17T09:29:56.894Z,17.60
2018-04-17T09:30:56.917Z,20.80
2018-04-17T09:31:56.945Z,25.40
2018-04-17T09:32:56.965Z,26.80
2018-04-17T09:33:56.986Z,21.60
2018-04-17T09:34:57.012Z,19.90
2018-04-17T09:35:57.041Z,19.30
2018-04-17T09:36:57.061Z,20.30
2018-04-17T09:37:57.089Z,16.30
2018-04-17T09:38:57.104Z,19.90
2018-04-17T09:39:57.126Z,18.60
2018-04-17T09:40:57.149Z,19.90
2018-04-17T09:41:57.170Z,18.40
2018-04-17T09:42:57.195Z,20.60
2018-04-17T09:43:57.217Z,18.20
2018-04-17T09:44:57.240Z,22.50
2018-04-17T09:45:57.262Z,15.70
2018-04-17T09:46:57.288Z,16.40
2018-04-17T09:47:57.309Z,15.20
2018-04-17T09:48:57.331Z,18.00
2018-04-17T09:49:57.372Z,13.90
2018-04-17T09:50:57.378Z,16.50
2018-04-17T09:51:57.401Z,13.80
2018-04-17T09:52:57.428Z,13.80
2018-04-17T09:53:57.447Z,17.30
2018-04-17T09:54:57.469Z,15.40
2018-04-17T09:55:57.500Z,17.20
2018-04-17T09:56:57.517Z,20.30
2018-04-17T09:57:57.538Z,20.20
2018-04-17T09:58:57.569Z,20.20
2018-04-17T09:59:57.589Z,19.20
2018-04-17T10:00:57.609Z,18.10
2018-04-17T10:01:57.634Z,18.70
2018-04-17T10:02:57.658Z,15.10
2018-04-17T10:03:57.677Z,16.90
2018-04-17T10:04:57.700Z,18.50
2018-04-17T10:05:57.726Z,15.40
2018-04-17T10:06:57.744Z,22.80
2018-04-17T10:07:57.769Z,18.60
2018-04-17T10:08:57.854Z,17.90
2018-04-17T10:09:57.814Z,19.10
2018-04-17T10:10:57.838Z,18.50
2018-04-17T10:11:57.869Z,20.40
2018-04-17T10:12:57.883Z,16.80
2018-04-17T10:13:57.929Z,18.40
2018-04-17T10:14:57.933Z,16.20
2018-04-17T10:15:57.955Z,18.70
2018-04-17T10:16:57.975Z,17.50
2018-04-17T10:17:58.001Z,17.40
2018-04-17T10:18:58.024Z,14.70
2018-04-17T10:19:58.047Z,16.40
2018-04-17T10:20:58.070Z,17.30
2018-04-17T10:21:58.095Z,18.00
2018-04-17T10:22:58.117Z,20.40
2018-04-17T10:23:58.139Z,17.50
2018-04-17T10:24:58.174Z,18.60
2018-04-17T10:25:58.195Z,16.80
2018-04-17T10:26:58.209Z,17.10
2018-04-17T10:27:58.230Z,15.60
2018-04-17T10:28:58.269Z,21.50
2018-04-17T10:29:58.277Z,18.30
2018-04-17T10:30:58.307Z,18.00
2018-04-17T10:31:58.324Z,17.10
2018-04-17T10:32:58.347Z,18.70
2018-04-17T10:33:58.374Z,16.30
2018-04-17T10:34:58.392Z,17.90
2018-04-17T10:35:58.433Z,18.00
2018-04-17T10:36:58.451Z,17.10
2018-04-17T10:37:58.472Z,20.90
2018-04-17T10:38:58.487Z,18.90
2018-04-17T10:39:58.508Z,17.30
2018-04-17T10:40:58.529Z,19.10
2018-04-17T10:41:58.560Z,24.90
2018-04-17T10:42:58.582Z,16.70
2018-04-17T10:43:58.603Z,19.40
2018-04-17T10:44:58.625Z,18.80
2018-04-17T10:45:58.647Z,15.90
2018-04-17T10:46:58.673Z,14.90
2018-04-17T10:47:58.705Z,18.00
2018-04-17T10:48:58.719Z,17.80
2018-04-17T10:49:58.743Z,20.20
2018-04-17T10:50:58.764Z,17.70
2018-04-17T10:51:58.788Z,16.80
2018-04-17T10:52:58.811Z,19.50
2018-04-17T10:53:58.832Z,19.30
2018-04-17T10:54:58.863Z,15.30
2018-04-17T10:55:58.884Z,18.60
2018-04-17T10:56:58.903Z,16.40
2018-04-17T10:57:58.924Z,17.20
2018-04-17T10:58:58.949Z,17.20
2018-04-17T10:59:58.971Z,18.10
2018-04-17T11:00:58.994Z,18.10
2018-04-17T11:01:59.027Z,18.80
2018-04-17T11:02:59.045Z,15.50
2018-04-17T11:03:59.093Z,17.30
2018-04-17T11:04:59.088Z,16.20
2018-04-17T11:05:59.113Z,18.30
2018-04-17T11:06:59.134Z,17.20
2018-04-17T11:07:59.158Z,19.40
2018-04-17T11:08:59.182Z,18.30
2018-04-17T11:09:59.203Z,19.50
2018-04-17T11:10:59.227Z,18.10
2018-04-17T11:11:59.249Z,17.60
2018-04-17T11:12:59.275Z,15.90
2018-04-17T11:13:59.295Z,16.50
2018-04-17T11:14:59.331Z,17.70
2018-04-17T11:15:59.346Z,18.60
2018-04-17T11:16:59.364Z,20.60
2018-04-17T11:17:59.389Z,19.20
2018-04-17T11:18:59.413Z,16.30
2018-04-17T11:19:59.437Z,16.50
2018-04-17T11:20:59.459Z,16.60
2018-04-17T11:21:59.494Z,18.90
2018-04-17T11:22:59.503Z,18.80
2018-04-17T11:23:59.531Z,21.20
2018-04-17T11:24:59.551Z,15.90
2018-04-17T11:25:59.575Z,20.80
2018-04-17T11:26:59.595Z,15.80
2018-04-17T11:27:59.622Z,15.90
2018-04-17T11:28:59.644Z,16.30
2018-04-17T11:29:59.667Z,20.30
2018-04-17T11:30:59.693Z,19.40
2018-04-17T11:31:59.710Z,20.10
2018-04-17T11:32:59.740Z,16.30
2018-04-17T11:33:59.765Z,18.00
2018-04-17T11:34:59.782Z,18.90
2018-04-17T11:35:59.813Z,21.00
2018-04-17T11:36:59.914Z,19.80
2018-04-17T11:37:59.848Z,15.90
2018-04-17T11:38:59.876Z,20.00
2018-04-17T11:39:59.902Z,19.60
2018-04-17T11:40:59.931Z,15.00
2018-04-17T11:41:59.942Z,16.70
2018-04-17T11:42:59.967Z,16.80
2018-04-17T11:43:59.989Z,19.80
2018-04-17T11:45:00.011Z,17.40
2018-04-17T11:46:00.042Z,15.30
2018-04-17T11:47:00.058Z,21.80
2018-04-17T11:48:00.082Z,21.10
2018-04-17T11:49:00.108Z,17.20
2018-04-17T11:50:00.128Z,22.00
2018-04-17T11:51:00.149Z,16.50
2018-04-17T11:52:00.177Z,20.80
2018-04-17T11:53:00.200Z,15.60
2018-04-17T11:54:00.219Z,17.60
2018-04-17T11:55:00.245Z,17.40
2018-04-17T11:56:00.267Z,19.30
2018-04-17T11:57:00.289Z,15.40
2018-04-17T11:58:00.315Z,13.80
2018-04-17T11:59:00.333Z,18.00
2018-04-17T12:00:00.359Z,16.30
2018-04-17T12:01:00.381Z,17.10
2018-04-17T12:02:00.403Z,24.90
2018-04-17T12:03:00.429Z,18.70
2018-04-17T12:04:00.451Z,20.30
2018-04-17T12:05:00.488Z,14.50
2018-04-17T12:06:00.498Z,19.10
2018-04-17T12:07:00.529Z,19.70
2018-04-17T12:08:00.545Z,16.90
2018-04-17T12:09:00.573Z,21.90
2018-04-17T12:10:00.792Z,16.10
2018-04-17T12:11:00.613Z,15.30
2018-04-17T12:12:00.638Z,17.10
2018-04-17T12:13:00.662Z,14.40
2018-04-17T12:14:00.685Z,16.90
2018-04-17T12:15:00.710Z,13.20
2018-04-17T12:16:00.735Z,16.50
2018-04-17T12:17:00.756Z,17.10
2018-04-17T12:18:00.788Z,18.50
2018-04-17T12:19:00.805Z,16.90
2018-04-17T12:20:00.829Z,16.30
2018-04-17T12:21:00.850Z,17.10
2018-04-17T12:22:00.871Z,18.30
2018-04-17T12:23:00.895Z,15.40
2018-04-17T12:24:00.920Z,16.00
2018-04-17T12:25:00.945Z,14.00
2018-04-17T12:26:00.963Z,17.30
2018-04-17T12:27:00.997Z,15.20
2018-04-17T12:28:01.013Z,19.90
2018-04-17T12:29:01.041Z,17.20
2018-04-17T12:30:01.064Z,14.40
2018-04-17T12:31:01.080Z,15.40
2018-04-17T12:32:01.108Z,23.60
2018-04-17T12:33:01.125Z,18.20
2018-04-17T12:34:01.151Z,16.20
2018-04-17T12:35:01.174Z,15.70
2018-04-17T12:36:01.198Z,14.60
2018-04-17T12:37:01.226Z,13.80
2018-04-17T12:38:01.243Z,13.60
2018-04-17T12:39:01.272Z,16.40
2018-04-17T12:40:01.292Z,13.00
2018-04-17T12:41:01.313Z,21.00
2018-04-17T12:42:01.342Z,13.20
2018-04-17T12:43:01.363Z,16.20
2018-04-17T12:44:01.386Z,16.40
2018-04-17T12:45:01.420Z,17.50
2018-04-17T12:46:01.429Z,15.10
2018-04-17T12:47:01.453Z,14.40
2018-04-17T12:48:01.478Z,17.60
2018-04-17T12:49:01.502Z,46.30
2018-04-17T12:50:01.526Z,22.90
2018-04-17T12:51:01.546Z,29.80
2018-04-17T12:52:01.627Z,25.90
2018-04-17T12:53:01.590Z,19.60